sensor_id;sensor_type;location;lat;lon;timestamp;P1;durP1;ratioP1;P2;durP2;ratioP2
20399;SDS011;10359;53.596;22.520;2023-08-12T00:10:23;10.43;;;7.33;;
20399;SDS011;10359;53.596;22.520;2023-08-12T00:17:09;11.77;;;8.30;;
20399;SDS011;10359;53.596;22.520;2023-08-12T00:24:06;10.00;;;7.70;;
20399;SDS011;10359;53.596;22.520;2023-08-12T00:27:10;8.17;;;7.37;;
20399;SDS011;10359;53.596;22.520;2023-08-12T00:33:50;14.20;;;8.93;;
20399;SDS011;10359;53.596;22.520;2023-08-12T00:40:30;11.30;;;7.90;;
20399;SDS011;10359;53.596;22.520;2023-08-12T00:47:29;10.37;;;7.07;;
20399;SDS011;10359;53.596;22.520;2023-08-12T00:54:16;11.97;;;8.40;;
20399;SDS011;10359;53.596;22.520;2023-08-12T01:04:41;12.90;;;8.43;;
20399;SDS011;10359;53.596;22.520;2023-08-12T01:11:28;9.30;;;7.40;;
20399;SDS011;10359;53.596;22.520;2023-08-12T01:33:33;7.90;;;6.53;;
20399;SDS011;10359;53.596;22.520;2023-08-12T01:40:24;10.47;;;7.03;;
20399;SDS011;10359;53.596;22.520;2023-08-12T01:51:14;10.77;;;7.27;;
20399;SDS011;10359;53.596;22.520;2023-08-12T01:54:17;10.13;;;7.20;;
20399;SDS011;10359;53.596;22.520;2023-08-12T02:04:47;10.93;;;6.90;;
20399;SDS011;10359;53.596;22.520;2023-08-12T02:11:34;9.27;;;7.57;;
20399;SDS011;10359;53.596;22.520;2023-08-12T02:18:14;11.77;;;6.40;;
20399;SDS011;10359;53.596;22.520;2023-08-12T02:25:00;7.63;;;6.40;;
20399;SDS011;10359;53.596;22.520;2023-08-12T02:31:59;7.00;;;6.30;;
20399;SDS011;10359;53.596;22.520;2023-08-12T02:38:45;9.87;;;6.67;;
20399;SDS011;10359;53.596;22.520;2023-08-12T02:45:25;9.83;;;6.90;;
20399;SDS011;10359;53.596;22.520;2023-08-12T02:52:12;10.60;;;7.10;;
20399;SDS011;10359;53.596;22.520;2023-08-12T02:58:52;11.00;;;8.47;;
20399;SDS011;10359;53.596;22.520;2023-08-12T03:05:32;7.93;;;6.50;;
20399;SDS011;10359;53.596;22.520;2023-08-12T03:12:13;7.20;;;6.50;;
20399;SDS011;10359;53.596;22.520;2023-08-12T03:19:04;8.90;;;6.80;;
20399;SDS011;10359;53.596;22.520;2023-08-12T03:25:55;13.33;;;7.20;;
20399;SDS011;10359;53.596;22.520;2023-08-12T03:32:29;10.13;;;7.30;;
20399;SDS011;10359;53.596;22.520;2023-08-12T03:35:30;7.63;;;6.40;;
20399;SDS011;10359;53.596;22.520;2023-08-12T03:46:01;9.67;;;6.20;;
20399;SDS011;10359;53.596;22.520;2023-08-12T03:52:36;11.20;;;7.13;;
20399;SDS011;10359;53.596;22.520;2023-08-12T04:10:21;10.00;;;6.47;;
20399;SDS011;10359;53.596;22.520;2023-08-12T04:13:12;8.23;;;5.97;;
20399;SDS011;10359;53.596;22.520;2023-08-12T04:19:46;7.77;;;6.20;;
20399;SDS011;10359;53.596;22.520;2023-08-12T04:34:19;8.23;;;5.00;;
20399;SDS011;10359;53.596;22.520;2023-08-12T04:41:09;7.33;;;4.50;;
20399;SDS011;10359;53.596;22.520;2023-08-12T04:55:51;7.17;;;4.80;;
20399;SDS011;10359;53.596;22.520;2023-08-12T04:58:42;5.53;;;5.00;;
20399;SDS011;10359;53.596;22.520;2023-08-12T05:13:13;6.60;;;5.73;;
20399;SDS011;10359;53.596;22.520;2023-08-12T05:31:46;6.67;;;5.20;;
20399;SDS011;10359;53.596;22.520;2023-08-12T05:38:37;6.07;;;4.97;;
20399;SDS011;10359;53.596;22.520;2023-08-12T05:48:51;5.87;;;4.40;;
20399;SDS011;10359;53.596;22.520;2023-08-12T05:59:24;6.40;;;4.17;;
20399;SDS011;10359;53.596;22.520;2023-08-12T06:06:16;7.17;;;3.47;;
20399;SDS011;10359;53.596;22.520;2023-08-12T06:20:12;3.97;;;2.60;;
20399;SDS011;10359;53.596;22.520;2023-08-12T06:27:05;3.73;;;2.20;;
20399;SDS011;10359;53.596;22.520;2023-08-12T06:33:55;6.33;;;2.40;;
20399;SDS011;10359;53.596;22.520;2023-08-12T06:40:46;3.40;;;2.20;;
20399;SDS011;10359;53.596;22.520;2023-08-12T06:47:21;7.33;;;2.30;;
20399;SDS011;10359;53.596;22.520;2023-08-12T06:53:55;4.90;;;2.13;;
20399;SDS011;10359;53.596;22.520;2023-08-12T07:00:46;5.13;;;1.90;;
20399;SDS011;10359;53.596;22.520;2023-08-12T07:07:20;5.07;;;2.50;;
20399;SDS011;10359;53.596;22.520;2023-08-12T07:13:54;5.37;;;2.10;;
20399;SDS011;10359;53.596;22.520;2023-08-12T07:20:45;4.80;;;2.13;;
20399;SDS011;10359;53.596;22.520;2023-08-12T07:27:20;2.43;;;1.90;;
20399;SDS011;10359;53.596;22.520;2023-08-12T07:33:53;3.93;;;2.17;;
20399;SDS011;10359;53.596;22.520;2023-08-12T07:40:26;4.60;;;2.10;;
20399;SDS011;10359;53.596;22.520;2023-08-12T07:47:19;3.13;;;1.97;;
20399;SDS011;10359;53.596;22.520;2023-08-12T07:54:10;4.83;;;2.10;;
20399;SDS011;10359;53.596;22.520;2023-08-12T08:05:04;2.13;;;1.83;;
20399;SDS011;10359;53.596;22.520;2023-08-12T08:11:56;3.53;;;1.87;;
20399;SDS011;10359;53.596;22.520;2023-08-12T08:18:29;3.13;;;2.00;;
20399;SDS011;10359;53.596;22.520;2023-08-12T08:25:04;2.53;;;1.97;;
20399;SDS011;10359;53.596;22.520;2023-08-12T08:31:55;4.43;;;1.70;;
20399;SDS011;10359;53.596;22.520;2023-08-12T08:38:46;3.50;;;1.70;;
20399;SDS011;10359;53.596;22.520;2023-08-12T08:45:39;3.23;;;1.90;;
20399;SDS011;10359;53.596;22.520;2023-08-12T08:52:31;2.83;;;1.87;;
20399;SDS011;10359;53.596;22.520;2023-08-12T08:59:23;4.20;;;1.77;;
20399;SDS011;10359;53.596;22.520;2023-08-12T09:05:59;3.00;;;1.70;;
20399;SDS011;10359;53.596;22.520;2023-08-12T09:12:51;3.83;;;1.80;;
20399;SDS011;10359;53.596;22.520;2023-08-12T09:19:43;4.90;;;1.97;;
20399;SDS011;10359;53.596;22.520;2023-08-12T09:26:18;4.23;;;1.87;;
20399;SDS011;10359;53.596;22.520;2023-08-12T09:33:10;3.23;;;1.97;;
20399;SDS011;10359;53.596;22.520;2023-08-12T09:40:01;2.37;;;1.60;;
20399;SDS011;10359;53.596;22.520;2023-08-12T09:46:58;3.50;;;1.93;;
20399;SDS011;10359;53.596;22.520;2023-08-12T09:53:49;2.03;;;1.70;;
20399;SDS011;10359;53.596;22.520;2023-08-12T10:00:42;4.93;;;1.90;;
20399;SDS011;10359;53.596;22.520;2023-08-12T10:07:35;2.47;;;1.63;;
20399;SDS011;10359;53.596;22.520;2023-08-12T10:14:27;2.70;;;1.77;;
20399;SDS011;10359;53.596;22.520;2023-08-12T10:21:19;2.80;;;1.80;;
20399;SDS011;10359;53.596;22.520;2023-08-12T10:28:13;3.55;;;1.65;;
20399;SDS011;10359;53.596;22.520;2023-08-12T11:05:05;4.07;;;1.90;;
20399;SDS011;10359;53.596;22.520;2023-08-12T11:14:33;2.70;;;2.30;;
20399;SDS011;10359;53.596;22.520;2023-08-12T11:21:37;5.60;;;1.98;;
20399;SDS011;10359;53.596;22.520;2023-08-12T11:32:10;2.42;;;1.80;;
20399;SDS011;10359;53.596;22.520;2023-08-12T11:46:20;3.63;;;1.92;;
20399;SDS011;10359;53.596;22.520;2023-08-12T12:00:14;4.75;;;1.95;;
20399;SDS011;10359;53.596;22.520;2023-08-12T12:10:47;2.65;;;2.10;;
20399;SDS011;10359;53.596;22.520;2023-08-12T12:21:19;4.72;;;2.08;;
20399;SDS011;10359;53.596;22.520;2023-08-12T12:31:54;2.42;;;1.83;;
20399;SDS011;10359;53.596;22.520;2023-08-12T12:42:44;2.58;;;1.63;;
20399;SDS011;10359;53.596;22.520;2023-08-12T12:49:19;2.45;;;1.60;;
20399;SDS011;10359;53.596;22.520;2023-08-12T12:52:09;3.65;;;1.92;;
20399;SDS011;10359;53.596;22.520;2023-08-12T13:02:23;4.20;;;1.95;;
20399;SDS011;10359;53.596;22.520;2023-08-12T13:09:14;2.83;;;1.90;;
20399;SDS011;10359;53.596;22.520;2023-08-12T13:16:05;4.57;;;1.80;;
20399;SDS011;10359;53.596;22.520;2023-08-12T13:26:10;2.00;;;1.77;;
20399;SDS011;10359;53.596;22.520;2023-08-12T13:32:58;2.58;;;2.17;;
20399;SDS011;10359;53.596;22.520;2023-08-12T13:39:46;4.22;;;2.30;;
20399;SDS011;10359;53.596;22.520;2023-08-12T13:49:44;3.35;;;2.00;;
20399;SDS011;10359;53.596;22.520;2023-08-12T13:56:18;3.17;;;1.77;;
20399;SDS011;10359;53.596;22.520;2023-08-12T14:07:12;3.17;;;1.80;;
20399;SDS011;10359;53.596;22.520;2023-08-12T14:13:45;3.33;;;1.95;;
20399;SDS011;10359;53.596;22.520;2023-08-12T14:20:36;2.50;;;1.77;;
20399;SDS011;10359;53.596;22.520;2023-08-12T14:27:29;2.50;;;1.83;;
20399;SDS011;10359;53.596;22.520;2023-08-12T14:34:21;2.70;;;1.75;;
20399;SDS011;10359;53.596;22.520;2023-08-12T14:41:12;2.78;;;1.70;;
20399;SDS011;10359;53.596;22.520;2023-08-12T14:48:05;3.45;;;2.10;;
20399;SDS011;10359;53.596;22.520;2023-08-12T14:54:56;3.22;;;1.83;;
20399;SDS011;10359;53.596;22.520;2023-08-12T15:01:47;3.67;;;2.17;;
20399;SDS011;10359;53.596;22.520;2023-08-12T15:08:22;4.57;;;1.80;;
20399;SDS011;10359;53.596;22.520;2023-08-12T15:15:12;3.25;;;1.98;;
20399;SDS011;10359;53.596;22.520;2023-08-12T15:22:03;2.83;;;1.80;;
20399;SDS011;10359;53.596;22.520;2023-08-12T15:28:56;3.00;;;1.80;;
20399;SDS011;10359;53.596;22.520;2023-08-12T15:35:47;2.78;;;1.83;;
20399;SDS011;10359;53.596;22.520;2023-08-12T15:42:37;3.75;;;1.80;;
20399;SDS011;10359;53.596;22.520;2023-08-12T15:49:32;3.53;;;1.77;;
20399;SDS011;10359;53.596;22.520;2023-08-12T15:56:05;3.20;;;2.00;;
20399;SDS011;10359;53.596;22.520;2023-08-12T16:02:56;2.55;;;1.77;;
20399;SDS011;10359;53.596;22.520;2023-08-12T16:09:48;5.67;;;1.97;;
20399;SDS011;10359;53.596;22.520;2023-08-12T16:16:39;2.27;;;1.93;;
20399;SDS011;10359;53.596;22.520;2023-08-12T16:23:13;3.47;;;1.83;;
20399;SDS011;10359;53.596;22.520;2023-08-12T16:29:48;4.73;;;2.00;;
20399;SDS011;10359;53.596;22.520;2023-08-12T16:36:20;2.60;;;1.97;;
20399;SDS011;10359;53.596;22.520;2023-08-12T16:43:11;2.13;;;1.80;;
20399;SDS011;10359;53.596;22.520;2023-08-12T16:53:39;2.40;;;1.90;;
20399;SDS011;10359;53.596;22.520;2023-08-12T17:00:30;3.93;;;2.40;;
20399;SDS011;10359;53.596;22.520;2023-08-12T17:07:20;3.40;;;2.20;;
20399;SDS011;10359;53.596;22.520;2023-08-12T17:13:55;2.60;;;2.00;;
20399;SDS011;10359;53.596;22.520;2023-08-12T17:20:29;2.13;;;1.80;;
20399;SDS011;10359;53.596;22.520;2023-08-12T17:27:02;3.80;;;2.13;;
20399;SDS011;10359;53.596;22.520;2023-08-12T17:33:54;3.10;;;1.90;;
20399;SDS011;10359;53.596;22.520;2023-08-12T17:40:47;4.27;;;2.30;;
20399;SDS011;10359;53.596;22.520;2023-08-12T17:47:37;5.67;;;2.50;;
20399;SDS011;10359;53.596;22.520;2023-08-12T17:54:29;6.07;;;2.60;;
20399;SDS011;10359;53.596;22.520;2023-08-12T18:01:21;4.90;;;2.80;;
20399;SDS011;10359;53.596;22.520;2023-08-12T18:08:14;5.40;;;2.83;;
20399;SDS011;10359;53.596;22.520;2023-08-12T18:15:07;6.67;;;3.20;;
20399;SDS011;10359;53.596;22.520;2023-08-12T18:21:41;4.07;;;2.73;;
20399;SDS011;10359;53.596;22.520;2023-08-12T18:28:32;4.93;;;2.80;;
20399;SDS011;10359;53.596;22.520;2023-08-12T18:35:25;5.63;;;2.87;;
20399;SDS011;10359;53.596;22.520;2023-08-12T18:41:58;5.37;;;3.00;;
20399;SDS011;10359;53.596;22.520;2023-08-12T18:52:16;6.00;;;2.97;;
20399;SDS011;10359;53.596;22.520;2023-08-12T18:58:15;5.57;;;2.80;;
20399;SDS011;10359;53.596;22.520;2023-08-12T19:05:03;6.70;;;3.30;;
20399;SDS011;10359;53.596;22.520;2023-08-12T19:11:52;3.20;;;2.90;;
20399;SDS011;10359;53.596;22.520;2023-08-12T19:22:04;5.93;;;3.00;;
20399;SDS011;10359;53.596;22.520;2023-08-12T19:36:03;4.10;;;3.20;;
20399;SDS011;10359;53.596;22.520;2023-08-12T19:42:51;3.50;;;3.00;;
20399;SDS011;10359;53.596;22.520;2023-08-12T19:49:39;5.53;;;2.90;;
20399;SDS011;10359;53.596;22.520;2023-08-12T19:52:44;3.67;;;2.80;;
20399;SDS011;10359;53.596;22.520;2023-08-12T19:59:32;3.07;;;2.77;;
20399;SDS011;10359;53.596;22.520;2023-08-12T20:14:08;5.23;;;3.30;;
20399;SDS011;10359;53.596;22.520;2023-08-12T20:39:34;4.97;;;3.10;;
20399;SDS011;10359;53.596;22.520;2023-08-12T20:57:24;3.03;;;2.83;;
20399;SDS011;10359;53.596;22.520;2023-08-12T21:07:42;4.50;;;2.80;;
20399;SDS011;10359;53.596;22.520;2023-08-12T21:14:31;6.53;;;3.43;;
20399;SDS011;10359;53.596;22.520;2023-08-12T21:25:01;7.20;;;3.10;;
20399;SDS011;10359;53.596;22.520;2023-08-12T21:27:50;5.03;;;3.37;;
20399;SDS011;10359;53.596;22.520;2023-08-12T21:38:22;4.27;;;3.13;;
20399;SDS011;10359;53.596;22.520;2023-08-12T21:55:27;4.30;;;3.37;;
20399;SDS011;10359;53.596;22.520;2023-08-12T22:09:52;4.57;;;2.80;;
20399;SDS011;10359;53.596;22.520;2023-08-12T22:20:07;8.17;;;3.47;;
20399;SDS011;10359;53.596;22.520;2023-08-12T22:26:41;4.93;;;3.70;;
20399;SDS011;10359;53.596;22.520;2023-08-12T22:36:58;4.07;;;2.90;;
20399;SDS011;10359;53.596;22.520;2023-08-12T22:47:14;6.13;;;3.50;;
20399;SDS011;10359;53.596;22.520;2023-08-12T22:53:49;5.53;;;3.70;;
20399;SDS011;10359;53.596;22.520;2023-08-12T23:00:39;3.73;;;3.40;;
20399;SDS011;10359;53.596;22.520;2023-08-12T23:07:30;4.53;;;3.33;;
20399;SDS011;10359;53.596;22.520;2023-08-12T23:14:22;4.30;;;3.40;;
20399;SDS011;10359;53.596;22.520;2023-08-12T23:21:13;7.07;;;3.50;;
20399;SDS011;10359;53.596;22.520;2023-08-12T23:27:47;5.70;;;3.73;;
20399;SDS011;10359;53.596;22.520;2023-08-12T23:34:39;4.00;;;3.60;;
20399;SDS011;10359;53.596;22.520;2023-08-12T23:41:30;4.37;;;3.57;;
20399;SDS011;10359;53.596;22.520;2023-08-12T23:48:04;6.00;;;3.87;;
20399;SDS011;10359;53.596;22.520;2023-08-12T23:54:39;7.27;;;4.20;;
